createdAt,value
2023-04-18T00:00:35.088Z,81.00
2023-04-18T00:03:04.013Z,81.10
2023-04-18T00:05:31.735Z,81.10
2023-04-18T00:07:58.664Z,81.10
2023-04-18T00:10:25.933Z,81.20
2023-04-18T00:12:52.902Z,81.20
2023-04-18T00:15:19.913Z,81.20
2023-04-18T00:17:48.390Z,81.20
2023-04-18T00:20:15.462Z,81.20
2023-04-18T00:22:43.041Z,81.20
2023-04-18T00:25:11.246Z,81.30
2023-04-18T00:27:39.261Z,81.40
2023-04-18T00:30:07.281Z,81.40
2023-04-18T00:32:39.979Z,81.50
2023-04-18T00:35:07.354Z,81.60
2023-04-18T00:37:34.363Z,81.60
2023-04-18T00:40:01.504Z,81.70
2023-04-18T00:42:29.443Z,81.80
2023-04-18T00:44:56.512Z,82.00
2023-04-18T00:47:23.590Z,82.10
2023-04-18T00:49:50.713Z,82.30
2023-04-18T00:52:18.582Z,82.50
2023-04-18T00:54:47.380Z,82.60
2023-04-18T00:57:14.977Z,82.60
2023-04-18T00:59:42.929Z,82.70
2023-04-18T01:02:10.007Z,82.70
2023-04-18T01:04:37.390Z,82.70
2023-04-18T01:07:04.881Z,82.80
2023-04-18T01:09:32.016Z,82.70
2023-04-18T01:11:58.994Z,82.70
2023-04-18T01:14:25.957Z,82.70
2023-04-18T01:16:53.361Z,82.70
2023-04-18T01:19:20.835Z,82.70
2023-04-18T01:21:48.044Z,82.70
2023-04-18T01:24:16.884Z,82.70
2023-04-18T01:26:45.514Z,82.70
2023-04-18T01:29:12.594Z,82.80
2023-04-18T01:31:40.912Z,82.80
2023-04-18T01:34:08.446Z,82.90
2023-04-18T01:36:36.172Z,82.90
2023-04-18T01:39:03.565Z,83.00
2023-04-18T01:41:32.909Z,83.00
2023-04-18T01:44:00.482Z,83.00
2023-04-18T01:46:28.463Z,83.00
2023-04-18T01:48:56.154Z,83.00
2023-04-18T01:51:23.238Z,83.00
2023-04-18T01:53:50.557Z,83.00
2023-04-18T01:56:17.516Z,82.90
2023-04-18T01:58:44.504Z,82.90
2023-04-18T02:01:13.109Z,82.90
2023-04-18T02:03:40.470Z,82.90
2023-04-18T02:06:07.920Z,82.90
2023-04-18T02:08:36.034Z,82.80
2023-04-18T02:11:05.410Z,82.80
2023-04-18T02:13:32.950Z,82.70
2023-04-18T02:16:00.109Z,82.70
2023-04-18T02:18:27.338Z,82.70
2023-04-18T02:20:54.572Z,82.70
2023-04-18T02:23:22.738Z,82.60
2023-04-18T02:25:50.850Z,82.50
2023-04-18T02:28:17.946Z,82.50
2023-04-18T02:30:44.944Z,82.40
2023-04-18T02:33:11.960Z,82.40
2023-04-18T02:35:40.747Z,82.40
2023-04-18T02:38:09.211Z,82.30
2023-04-18T02:40:36.228Z,82.30
2023-04-18T02:43:03.300Z,82.30
2023-04-18T02:45:30.539Z,82.20
2023-04-18T02:47:59.820Z,82.20
2023-04-18T02:50:27.175Z,82.20
2023-04-18T02:52:56.008Z,82.10
2023-04-18T02:55:26.972Z,82.00
2023-04-18T02:57:58.015Z,81.90
2023-04-18T03:00:55.496Z,81.80
2023-04-18T03:03:41.395Z,81.80
2023-04-18T03:06:22.567Z,81.70
2023-04-18T03:08:49.656Z,81.70
2023-04-18T03:11:16.988Z,81.70
2023-04-18T03:13:44.563Z,81.70
2023-04-18T03:16:12.302Z,81.60
2023-04-18T03:18:40.009Z,81.60
2023-04-18T03:21:07.265Z,81.50
2023-04-18T03:23:35.081Z,81.50
2023-04-18T03:26:06.077Z,81.40
2023-04-18T03:28:35.025Z,81.30
2023-04-18T03:31:02.125Z,81.30
2023-04-18T03:33:29.951Z,81.30
2023-04-18T03:36:06.873Z,81.30
2023-04-18T03:38:34.061Z,81.30
2023-04-18T03:41:01.153Z,81.30
2023-04-18T03:43:33.576Z,81.20
2023-04-18T03:46:01.133Z,81.20
2023-04-18T03:48:29.130Z,81.20
2023-04-18T03:50:59.840Z,81.10
2023-04-18T03:53:26.915Z,81.20
2023-04-18T03:55:56.327Z,81.20
2023-04-18T03:58:29.229Z,81.20
2023-04-18T04:00:56.334Z,81.10
2023-04-18T04:03:23.364Z,81.20
2023-04-18T04:05:50.534Z,81.20
2023-04-18T04:08:17.616Z,81.10
2023-04-18T04:10:45.587Z,81.10
2023-04-18T04:13:12.707Z,81.20
2023-04-18T04:15:41.302Z,81.20
2023-04-18T04:18:10.617Z,81.20
2023-04-18T04:20:41.717Z,81.30
2023-04-18T04:23:13.245Z,81.30
2023-04-18T04:25:41.997Z,81.40
2023-04-18T04:28:17.959Z,81.40
2023-04-18T04:30:53.912Z,81.40
2023-04-18T04:33:22.000Z,81.50
2023-04-18T04:35:49.829Z,81.40
2023-04-18T04:38:20.080Z,81.40
2023-04-18T04:40:48.179Z,81.40
2023-04-18T04:43:16.487Z,81.40
2023-04-18T04:45:45.512Z,81.40
2023-04-18T04:48:12.599Z,81.30
2023-04-18T04:50:41.832Z,81.40
2023-04-18T04:53:11.896Z,81.40
2023-04-18T04:55:39.337Z,81.40
2023-04-18T04:58:06.671Z,81.40
2023-04-18T05:00:57.599Z,81.40
2023-04-18T05:03:24.843Z,81.40
2023-04-18T05:05:53.955Z,81.30
2023-04-18T05:08:21.011Z,81.30
2023-04-18T05:10:49.744Z,81.30
2023-04-18T05:13:16.937Z,81.20
2023-04-18T05:15:44.211Z,81.20
2023-04-18T05:18:11.405Z,81.20
2023-04-18T05:20:38.366Z,81.20
2023-04-18T05:23:05.475Z,81.20
2023-04-18T05:25:33.666Z,81.20
2023-04-18T05:28:01.269Z,81.20
2023-04-18T05:30:28.342Z,81.30
2023-04-18T05:32:55.387Z,81.30
2023-04-18T05:35:22.434Z,81.40
2023-04-18T05:37:49.483Z,81.50
2023-04-18T05:40:17.649Z,81.60
2023-04-18T05:42:44.684Z,81.70
2023-04-18T05:45:12.113Z,81.70
2023-04-18T05:47:39.161Z,81.80
2023-04-18T05:50:07.366Z,81.90
2023-04-18T05:52:34.484Z,82.00
2023-04-18T05:55:01.451Z,82.10
2023-04-18T05:57:28.481Z,82.20
2023-04-18T05:59:55.845Z,82.40
2023-04-18T06:02:23.126Z,82.50
2023-04-18T06:04:50.365Z,82.70
2023-04-18T06:07:17.706Z,82.90
2023-04-18T06:09:44.678Z,83.10
2023-04-18T06:12:11.728Z,83.30
2023-04-18T06:14:38.772Z,83.50
2023-04-18T06:17:07.379Z,83.60
2023-04-18T06:19:34.341Z,83.80
2023-04-18T06:22:01.638Z,83.90
2023-04-18T06:24:30.176Z,84.10
2023-04-18T06:26:58.359Z,84.20
2023-04-18T06:29:28.135Z,84.30
2023-04-18T06:31:55.239Z,84.40
2023-04-18T06:34:22.328Z,84.50
2023-04-18T06:36:49.616Z,84.50
2023-04-18T06:39:16.595Z,84.50
2023-04-18T06:41:43.581Z,84.60
2023-04-18T06:44:10.625Z,84.60
2023-04-18T06:46:37.820Z,84.60
2023-04-18T06:49:04.794Z,84.70
2023-04-18T06:51:31.848Z,84.70
2023-04-18T06:53:58.736Z,84.80
2023-04-18T06:56:26.442Z,84.80
2023-04-18T06:58:53.505Z,84.80
2023-04-18T07:01:21.003Z,84.80
2023-04-18T07:03:48.148Z,84.70
2023-04-18T07:06:15.713Z,84.70
2023-04-18T07:08:42.740Z,84.70
2023-04-18T07:11:13.237Z,84.70
2023-04-18T07:13:40.322Z,84.70
2023-04-18T07:16:09.353Z,84.60
2023-04-18T07:18:38.323Z,84.70
2023-04-18T07:21:09.401Z,84.70
2023-04-18T07:23:37.288Z,84.70
2023-04-18T07:26:05.850Z,84.70
2023-04-18T07:28:33.568Z,84.60
2023-04-18T07:31:01.319Z,84.50
2023-04-18T07:33:31.708Z,84.30
2023-04-18T07:35:58.911Z,84.30
2023-04-18T07:38:26.105Z,84.10
2023-04-18T07:41:00.353Z,83.80
2023-04-18T07:43:27.592Z,83.50
2023-04-18T07:45:54.874Z,83.40
2023-04-18T07:48:28.146Z,83.20
2023-04-18T07:50:55.261Z,83.10
2023-04-18T07:53:22.203Z,83.00
2023-04-18T07:55:49.999Z,82.80
2023-04-18T07:58:17.302Z,82.60
2023-04-18T08:00:44.936Z,82.40
2023-04-18T08:03:13.000Z,82.00
2023-04-18T08:05:41.958Z,81.10
2023-04-18T08:08:11.198Z,80.90
2023-04-18T08:10:38.333Z,81.00
2023-04-18T08:13:06.371Z,81.10
2023-04-18T08:15:34.293Z,80.70
2023-04-18T08:18:01.852Z,80.30
2023-04-18T08:20:29.076Z,80.40
2023-04-18T08:25:26.171Z,78.70
2023-04-18T08:27:53.108Z,78.00
2023-04-18T08:30:20.311Z,78.20
2023-04-18T08:32:47.378Z,78.60
2023-04-18T08:35:14.379Z,78.60
2023-04-18T08:37:41.524Z,78.40
2023-04-18T08:40:08.956Z,77.60
2023-04-18T08:42:39.790Z,76.80
2023-04-18T08:45:07.566Z,76.40
2023-04-18T08:47:35.635Z,76.50
2023-04-18T08:50:02.704Z,76.90
2023-04-18T08:52:31.095Z,77.00
2023-04-18T08:54:58.165Z,76.70
2023-04-18T08:57:27.064Z,76.30
2023-04-18T08:59:54.614Z,76.00
2023-04-18T09:02:23.467Z,74.80
2023-04-18T09:04:53.744Z,74.20
2023-04-18T09:07:28.445Z,74.30
2023-04-18T09:09:57.706Z,73.60
2023-04-18T09:12:29.467Z,73.80
2023-04-18T09:15:10.211Z,73.90
2023-04-18T09:17:43.610Z,73.20
2023-04-18T09:20:13.032Z,72.90
2023-04-18T09:22:47.944Z,72.70
2023-04-18T09:25:34.505Z,72.00
2023-04-18T09:28:06.282Z,71.80
2023-04-18T09:30:39.366Z,72.30
2023-04-18T09:33:10.205Z,72.40
2023-04-18T09:35:38.337Z,70.40
2023-04-18T09:38:07.474Z,70.10
2023-04-18T09:40:34.551Z,69.90
2023-04-18T09:43:01.796Z,69.50
2023-04-18T09:45:28.943Z,70.20
2023-04-18T09:47:56.249Z,70.80
2023-04-18T09:50:23.511Z,70.50
2023-04-18T09:52:50.559Z,69.20
2023-04-18T09:55:19.261Z,69.20
2023-04-18T09:57:47.955Z,67.90
2023-04-18T10:00:23.889Z,67.60
2023-04-18T10:02:59.246Z,68.40
2023-04-18T10:05:38.913Z,69.40
2023-04-18T10:08:06.777Z,70.10
2023-04-18T10:10:33.992Z,70.30
2023-04-18T10:13:02.628Z,70.00
2023-04-18T10:15:32.041Z,69.20
2023-04-18T10:18:07.485Z,66.60
2023-04-18T10:20:35.464Z,65.90
2023-04-18T10:23:40.190Z,66.20
2023-04-18T10:26:08.578Z,65.80
2023-04-18T10:29:09.404Z,65.90
2023-04-18T10:31:39.370Z,66.10
2023-04-18T10:34:07.276Z,66.30
2023-04-18T10:36:34.468Z,66.60
2023-04-18T10:39:19.935Z,66.50
2023-04-18T10:41:51.119Z,65.70
2023-04-18T10:44:20.688Z,66.10
2023-04-18T10:46:53.448Z,66.30
2023-04-18T10:49:23.940Z,65.40
2023-04-18T10:51:54.182Z,65.40
2023-04-18T10:54:25.513Z,65.80
2023-04-18T10:56:56.899Z,64.60
2023-04-18T10:59:25.387Z,64.80
2023-04-18T11:01:57.719Z,63.90
2023-04-18T11:04:32.187Z,63.30
2023-04-18T11:07:01.412Z,63.80
2023-04-18T11:09:28.380Z,64.50
2023-04-18T11:12:09.604Z,64.00
2023-04-18T11:14:51.972Z,64.00
2023-04-18T11:17:36.015Z,64.20
2023-04-18T11:20:09.286Z,63.50
2023-04-18T11:23:00.551Z,62.50
2023-04-18T11:25:36.446Z,61.30
2023-04-18T11:28:05.076Z,62.00
2023-04-18T11:30:39.632Z,61.90
2023-04-18T11:33:11.761Z,59.80
2023-04-18T11:35:43.099Z,59.50
2023-04-18T11:38:12.960Z,58.90
2023-04-18T11:40:46.894Z,59.70
2023-04-18T11:43:28.725Z,59.10
2023-04-18T11:46:00.005Z,58.90
2023-04-18T11:48:41.815Z,59.50
2023-04-18T11:51:30.217Z,59.60
2023-04-18T11:53:57.285Z,59.60
2023-04-18T11:56:24.259Z,60.00
2023-04-18T11:58:51.500Z,60.40
2023-04-18T12:01:25.705Z,59.10
2023-04-18T12:04:05.820Z,58.30
2023-04-18T12:06:49.941Z,58.30
2023-04-18T12:09:17.719Z,57.40
2023-04-18T12:11:56.285Z,56.80
2023-04-18T12:14:23.412Z,57.60
2023-04-18T12:16:51.013Z,58.80
2023-04-18T12:19:20.470Z,57.20
2023-04-18T12:22:01.685Z,57.80
2023-04-18T12:24:32.201Z,58.00
2023-04-18T12:26:59.930Z,57.50
2023-04-18T12:29:28.810Z,58.10
2023-04-18T12:31:56.711Z,58.00
2023-04-18T12:34:23.878Z,59.20
2023-04-18T12:36:51.030Z,58.20
2023-04-18T12:39:17.997Z,59.60
2023-04-18T12:41:45.029Z,59.00
2023-04-18T12:44:12.536Z,58.00
2023-04-18T12:46:39.943Z,57.90
2023-04-18T12:49:06.921Z,57.30
2023-04-18T12:51:33.932Z,56.60
2023-04-18T12:54:00.948Z,57.10
2023-04-18T12:56:27.935Z,57.70
2023-04-18T12:58:54.890Z,55.90
2023-04-18T13:01:22.209Z,56.10
2023-04-18T13:03:56.750Z,56.30
2023-04-18T13:06:31.633Z,55.20
2023-04-18T13:08:58.905Z,55.60
2023-04-18T13:11:29.032Z,56.30
2023-04-18T13:13:56.106Z,57.20
2023-04-18T13:16:23.096Z,56.60
2023-04-18T13:18:50.135Z,55.80
2023-04-18T13:21:17.266Z,56.20
2023-04-18T13:23:44.265Z,56.10
2023-04-18T13:26:11.227Z,56.20
2023-04-18T13:28:38.353Z,56.70
2023-04-18T13:31:06.070Z,56.90
2023-04-18T13:33:33.013Z,56.90
2023-04-18T13:35:59.973Z,56.90
2023-04-18T13:38:28.069Z,55.10
2023-04-18T13:41:08.430Z,55.00
2023-04-18T13:43:43.082Z,54.80
2023-04-18T13:46:10.281Z,54.90
2023-04-18T13:48:37.400Z,55.30
2023-04-18T13:51:04.729Z,55.20
2023-04-18T13:53:31.666Z,55.40
2023-04-18T13:55:59.157Z,55.60
2023-04-18T13:58:26.128Z,55.80
2023-04-18T14:00:53.846Z,56.10
2023-04-18T14:03:21.175Z,56.80
2023-04-18T14:05:48.441Z,56.20
2023-04-18T14:08:15.451Z,55.80
2023-04-18T14:22:27.119Z,55.50
2023-04-18T14:24:56.140Z,56.20
2023-04-18T14:27:25.471Z,55.40
2023-04-18T14:29:52.592Z,55.50
2023-04-18T14:32:19.600Z,54.70
2023-04-18T14:34:46.561Z,54.60
2023-04-18T14:37:15.574Z,54.80
2023-04-18T14:39:42.775Z,54.70
2023-04-18T14:42:09.800Z,54.00
2023-04-18T14:44:36.956Z,53.00
2023-04-18T14:47:04.050Z,53.10
2023-04-18T14:49:31.091Z,53.70
2023-04-18T14:51:58.123Z,52.90
2023-04-18T14:54:25.320Z,53.00
2023-04-18T14:56:52.962Z,52.50
2023-04-18T14:59:20.244Z,52.70
2023-04-18T15:01:47.579Z,53.10
2023-04-18T15:04:15.048Z,53.40
2023-04-18T15:06:42.444Z,53.40
2023-04-18T15:09:09.448Z,54.00
2023-04-18T15:11:37.098Z,53.70
2023-04-18T15:14:04.154Z,53.70
2023-04-18T15:16:32.102Z,53.40
2023-04-18T15:19:00.436Z,53.30
2023-04-18T15:21:27.462Z,53.20
2023-04-18T15:23:54.487Z,54.20
2023-04-18T15:26:21.422Z,53.40
2023-04-18T15:28:48.710Z,53.70
2023-04-18T15:31:16.556Z,54.10
2023-04-18T15:33:43.602Z,54.40
2023-04-18T15:36:10.577Z,54.60
2023-04-18T15:38:37.545Z,55.10
2023-04-18T15:41:04.573Z,53.70
2023-04-18T15:43:31.618Z,53.20
2023-04-18T15:45:58.690Z,52.70
2023-04-18T15:48:25.930Z,52.50
2023-04-18T15:50:52.944Z,53.30
2023-04-18T15:53:20.089Z,52.90
2023-04-18T15:55:47.113Z,52.90
2023-04-18T15:58:14.261Z,52.80
2023-04-18T16:00:41.715Z,53.10
2023-04-18T16:03:10.427Z,53.50
2023-04-18T16:05:37.562Z,53.40
2023-04-18T16:08:04.622Z,52.60
2023-04-18T16:10:31.611Z,53.00
2023-04-18T16:12:59.632Z,53.70
2023-04-18T16:15:26.722Z,54.20
2023-04-18T16:17:54.055Z,54.20
2023-04-18T16:20:21.316Z,54.30
2023-04-18T16:22:48.363Z,54.90
2023-04-18T16:25:15.489Z,54.80
2023-04-18T16:27:43.052Z,55.00
2023-04-18T16:30:10.373Z,54.80
2023-04-18T16:32:40.705Z,55.00
2023-04-18T16:35:10.304Z,55.60
2023-04-18T16:37:38.246Z,55.50
2023-04-18T16:40:06.556Z,55.90
2023-04-18T16:42:33.894Z,56.00
2023-04-18T16:45:02.398Z,55.30
2023-04-18T16:47:30.409Z,55.30
2023-04-18T16:49:57.485Z,55.20
2023-04-18T16:52:24.803Z,55.40
2023-04-18T16:54:52.737Z,55.80
2023-04-18T16:57:19.902Z,56.20
2023-04-18T16:59:47.379Z,56.40
2023-04-18T17:02:15.364Z,56.70
2023-04-18T17:04:42.738Z,56.20
2023-04-18T17:07:09.847Z,56.60
2023-04-18T17:09:36.817Z,56.90
2023-04-18T17:12:03.893Z,56.80
2023-04-18T17:14:30.840Z,57.40
2023-04-18T17:16:57.805Z,57.30
2023-04-18T17:19:24.834Z,56.90
2023-04-18T17:21:51.847Z,57.50
2023-04-18T17:24:18.951Z,57.60
2023-04-18T17:26:46.031Z,57.50
2023-04-18T17:29:13.245Z,57.70
2023-04-18T17:31:40.779Z,57.70
2023-04-18T17:34:07.915Z,58.10
2023-04-18T17:36:34.966Z,58.70
2023-04-18T17:39:07.827Z,58.80
2023-04-18T17:41:38.507Z,58.80
2023-04-18T17:44:07.828Z,58.50
2023-04-18T17:46:34.972Z,58.70
2023-04-18T17:49:02.311Z,59.20
2023-04-18T17:51:29.308Z,59.40
2023-04-18T17:53:56.419Z,59.60
2023-04-18T17:56:23.449Z,59.70
2023-04-18T17:58:50.758Z,60.00
2023-04-18T18:01:19.652Z,60.00
2023-04-18T18:03:47.368Z,60.10
2023-04-18T18:06:15.470Z,60.20
2023-04-18T18:08:43.297Z,60.60
2023-04-18T18:11:10.811Z,61.00
2023-04-18T18:13:40.737Z,61.20
2023-04-18T18:16:19.648Z,61.30
2023-04-18T18:18:58.761Z,61.40
2023-04-18T18:21:42.155Z,61.50
2023-04-18T18:24:35.984Z,61.60
2023-04-18T18:27:14.084Z,61.60
2023-04-18T18:29:53.458Z,61.50
2023-04-18T18:32:22.288Z,61.90
2023-04-18T18:34:49.264Z,61.70
2023-04-18T18:37:16.332Z,61.80
2023-04-18T18:39:43.294Z,62.00
2023-04-18T18:42:10.388Z,62.00
2023-04-18T18:44:37.440Z,62.20
2023-04-18T18:47:04.860Z,62.40
2023-04-18T18:49:31.879Z,62.60
2023-04-18T18:51:59.091Z,62.60
2023-04-18T18:54:26.155Z,62.80
2023-04-18T18:56:53.135Z,63.10
2023-04-18T18:59:20.225Z,63.10
2023-04-18T19:01:47.326Z,63.40
2023-04-18T19:04:14.506Z,63.60
2023-04-18T19:06:42.032Z,63.70
2023-04-18T19:09:09.102Z,63.80
2023-04-18T19:11:36.079Z,64.10
2023-04-18T19:14:03.425Z,64.30
2023-04-18T19:16:30.693Z,64.50
2023-04-18T19:18:57.619Z,64.60
2023-04-18T19:21:24.637Z,64.80
2023-04-18T19:23:51.663Z,64.90
2023-04-18T19:26:18.717Z,65.10
2023-04-18T19:28:45.892Z,65.10
2023-04-18T19:31:12.979Z,65.20
2023-04-18T19:33:40.045Z,65.40
2023-04-18T19:36:07.147Z,65.70
2023-04-18T19:38:34.739Z,65.70
2023-04-18T19:41:01.781Z,65.80
2023-04-18T19:43:28.732Z,65.80
2023-04-18T19:45:55.908Z,65.80
2023-04-18T19:48:22.936Z,66.00
2023-04-18T19:50:50.182Z,66.10
2023-04-18T19:53:18.968Z,66.10
2023-04-18T19:55:46.155Z,66.20
2023-04-18T19:58:46.279Z,66.20
2023-04-18T20:01:15.848Z,66.20
2023-04-18T20:03:43.437Z,66.30
2023-04-18T20:06:11.092Z,66.30
2023-04-18T20:08:44.461Z,66.40
2023-04-18T20:11:13.261Z,66.50
2023-04-18T20:13:41.350Z,66.60
2023-04-18T20:16:09.250Z,66.70
2023-04-18T20:18:41.733Z,66.80
2023-04-18T20:21:09.987Z,66.90
2023-04-18T20:23:37.445Z,67.30
2023-04-18T20:26:04.734Z,67.40
2023-04-18T20:28:32.022Z,67.50
2023-04-18T20:30:59.369Z,67.60
2023-04-18T20:33:26.422Z,67.90
2023-04-18T20:35:54.767Z,67.90
2023-04-18T20:38:25.852Z,67.90
2023-04-18T20:40:54.270Z,68.10
2023-04-18T20:43:21.618Z,68.20
2023-04-18T20:45:51.558Z,68.40
2023-04-18T20:48:18.816Z,68.40
2023-04-18T20:50:51.332Z,68.40
2023-04-18T20:53:26.061Z,68.60
2023-04-18T20:55:53.193Z,68.80
2023-04-18T20:58:20.288Z,69.00
2023-04-18T21:00:48.380Z,69.10
2023-04-18T21:03:16.846Z,69.20
2023-04-18T21:05:44.989Z,69.30
2023-04-18T21:08:12.113Z,69.40
2023-04-18T21:10:39.797Z,69.50
2023-04-18T21:13:06.980Z,69.60
2023-04-18T21:15:35.728Z,69.60
2023-04-18T21:18:02.886Z,69.80
2023-04-18T21:20:30.048Z,69.80
2023-04-18T21:22:57.041Z,69.80
2023-04-18T21:25:24.028Z,69.90
2023-04-18T21:27:51.038Z,69.90
2023-04-18T21:30:18.309Z,70.00
2023-04-18T21:32:47.140Z,70.10
2023-04-18T21:35:14.998Z,70.20
2023-04-18T21:37:42.695Z,70.20
2023-04-18T21:40:10.319Z,70.30
2023-04-18T21:42:37.310Z,70.40
2023-04-18T21:45:06.144Z,70.50
2023-04-18T21:47:33.269Z,70.70
2023-04-18T21:50:00.300Z,70.70
2023-04-18T21:52:27.304Z,70.80
2023-04-18T21:54:54.362Z,70.90
2023-04-18T21:57:21.315Z,70.90
2023-04-18T21:59:48.371Z,71.00
2023-04-18T22:02:15.547Z,71.10
2023-04-18T22:04:42.894Z,71.20
2023-04-18T22:07:11.492Z,71.20
2023-04-18T22:09:38.640Z,71.30
2023-04-18T22:12:05.812Z,71.50
2023-04-18T22:14:32.848Z,71.50
2023-04-18T22:17:01.788Z,71.60
2023-04-18T22:19:29.486Z,71.60
2023-04-18T22:21:56.938Z,71.70
2023-04-18T22:24:25.901Z,71.60
2023-04-18T22:26:53.427Z,71.60
2023-04-18T22:29:20.551Z,71.60
2023-04-18T22:31:47.519Z,71.60
2023-04-18T22:34:14.793Z,71.60
2023-04-18T22:36:43.927Z,71.50
2023-04-18T22:39:12.191Z,71.50
2023-04-18T22:41:39.240Z,71.60
2023-04-18T22:44:06.979Z,71.60
2023-04-18T22:46:33.929Z,71.50
2023-04-18T22:49:00.946Z,71.50
2023-04-18T22:51:28.762Z,71.50
2023-04-18T22:53:56.483Z,71.50
2023-04-18T22:56:23.485Z,71.50
2023-04-18T22:58:50.676Z,71.40
2023-04-18T23:01:17.942Z,71.40
2023-04-18T23:03:45.207Z,71.40
2023-04-18T23:06:12.378Z,71.40
2023-04-18T23:08:39.379Z,71.40
2023-04-18T23:11:06.432Z,71.30
2023-04-18T23:13:33.461Z,71.40
2023-04-18T23:16:00.405Z,71.40
2023-04-18T23:18:30.074Z,71.30
2023-04-18T23:20:57.118Z,71.30
2023-04-18T23:23:24.166Z,71.20
2023-04-18T23:25:52.068Z,71.30
2023-04-18T23:28:19.156Z,71.20
2023-04-18T23:30:47.299Z,71.20
2023-04-18T23:33:14.331Z,71.20
2023-04-18T23:35:41.313Z,71.20
2023-04-18T23:38:08.572Z,71.10
2023-04-18T23:40:35.938Z,71.20
2023-04-18T23:43:03.020Z,71.20
2023-04-18T23:45:29.969Z,71.20
2023-04-18T23:47:57.078Z,71.30
2023-04-18T23:50:24.162Z,71.30
2023-04-18T23:52:51.329Z,71.40
2023-04-18T23:55:18.507Z,71.40
2023-04-18T23:57:45.667Z,71.40
